Skip Navigation Links
NOAA logo - Click to go to the NOAA homepage
NOAA's National Weather Service
Alaska Aviation Weather Unit
  NWS logo - Click to go to the NWS homepage
Left Navbar Graphic     12 AKDT = 20 GMT

   
NOAA is celebrating 200 years of science, service, and stewardship. Visit the NOAA 200th celebration Web site to learn more.
USA.gov is the U.S. Government's official Web portal to all Federal, state and local government Web resources and services.
Facebook
NWS on Facebook

Important Change Regarding the AAWU Web Presence

 

Over the last several months, the AAWU has been working to navigate its webpages to a nationally supported server. Security, as well as other needs, have necessitated the change.  We have been given an extension for the site changeover while we diligently work at addressing feedback received. As of July 14, 2017, aawu.arh.noaa.gov will be discontinued. The new AAWU web address is weather.gov/aawu. It is now live and will run in-parallel with the old site until it is discontinued on July 14, 2017. Please continue to send any feedback or questions regarding the new webpages to nws.ar.aawu.webauthors@noaa.gov.  Thank you for your patience during this time of transition.
AAWU Home :: Display TAF Add Bookmark
TAF PAGA 251817Z 2518/2618 17004KT P6SM -SHRA SCT008 OVC019
     FM252300 20004KT 5SM -SHRA BR SCT015 OVC030
     FM261400 VRB03KT 4SM -RA BR SCT015 BKN025=

METAR PAGA 251456Z AUTO 13004KT 10SM OVC025 14/12 A2992= SPECI PAGA 251524Z AUTO 11003KT 10SM SCT027 BKN034 OVC060 14/12 A2992 RMK AO2= METAR PAGA 251556Z AUTO 14005KT 10SM FEW025 SCT046 OVC065 14/12 A2991= METAR PAGA 251656Z AUTO 17004KT 10SM BKN032 OVC041 14/12 A2991= SPECI PAGA 251719Z AUTO 20004KT 4SM -RA BR SCT006 BKN034 OVC041 14/13 A2991 RMK AO2 RAB12 P0000= SPECI PAGA 251731Z AUTO 19003KT 7SM -RA FEW006 BKN021 OVC041 14/13 A2990 RMK AO2 RAB12 P0000= SPECI PAGA 251745Z AUTO 18004KT 10SM FEW006 BKN011 OVC021 14/13 A2991 RMK AO2 RAB12E39 P0000= METAR PAGA 251756Z AUTO 17004KT 10SM SCT008 OVC019 14/13 A2990= SPECI PAGA 251823Z AUTO 17003KT 8SM -RA BKN010 OVC017 15/13 A2990 RMK AO2 RAB10 P0000= METAR PAGA 251856Z AUTO 00000KT 10SM OVC012 15/13 A2989= SPECI PAGA 251921Z AUTO 17006KT 10SM BKN016 OVC033 16/12 A2989 RMK AO2= METAR PAGA 251956Z AUTO 19005KT 10SM BKN018 OVC048 16/12 A2988=
 Alaska TAF Map

NOAA's National Weather Service
Alaska Aviation Weather Unit
6930 Sand Lake Road
Anchorage, AK 99502-1845
Disclaimer
Credits
Glossary
Privacy Policy
About Us
Career Opportunities
Contact AAWU Internet Services Site last modified: April, 17th 2012